Biscayne National Park, FL

6:48 PM EST on November 22, 2014 (GMT -0500)
Bali at The Isles at Oasis | Change Station
CLOSE
Current Station
Personal Weather Station
Location: Homestead, FL
Elevation: 10 ft
Nearby Weather Stations
Active Advisory: Coastal Hazard Statement

Elev 10 ft 25.47 °N, 80.42 °W | Updated 10 seconds ago

Partly Cloudy
Partly Cloudy
75.9 °F
Feels Like 76 °F
N
4.0
Wind Variable Wind from ENE
Gusts 12.0 mph

Today
High -- | Low -- °F
--% Chance of Precip.
Yesterday
High -- | Low -- °F
Precip. -- in
6:44 AM 5:31 PM
New Moon, 0% visible
Pressure 30.06 in
Visibility 10.0 miles
Clouds Scattered Clouds 2000 ft
Scattered Clouds 2800 ft
Heat Index 76 °F
Dew Point 73 °F
Humidity 90%
Rainfall 0.00 in
Snow Depth Not available.
UV 0 out of 12
Pollen 4.30 out of 12
Air Quality Not available.
Flu Activity Not available.
METAR KHST 222258Z AUTO 08014G19KT 10SM SCT020 SCT028 24/22 A3005 RMK AO2 RAB2220E2248DZB2234E2237 SLP179 P0000 T02420216 $

More Conditions Fewer Conditions

Pressure 30.06 in
Visibility 10.0 miles
Clouds Scattered Clouds 2000 ft
Scattered Clouds 2800 ft
Heat Index 76 °F
Dew Point 73 °F
Humidity 90%
Rainfall 0.00 in
Snow Depth Not available.
UV 0 out of 12
Pollen 4.30 out of 12
Air Quality Not available.
Flu Activity Not available.
METAR KHST 222258Z AUTO 08014G19KT 10SM SCT020 SCT028 24/22 A3005 RMK AO2 RAB2220E2248DZB2234E2237 SLP179 P0000 T02420216 $

More Conditions Fewer Conditions

10-Day Weather Forecast

Almanac

Astronomy

Nov. 22, 2014 Rise Set
Actual Time
Civil Twilight
Nautical Twilight
Astronomical Twilight
Moon
Length of Visible Light
Length of Day
Tomorrow will be .
, % of the Moon is Illuminated

Today's Extremes

State Highs State Lows

Community

WunderPhotos

Upload Photos

1,772,928 photos uploaded!

WunderBlogs® & News

Nearby

Air Quality

  Air Quality AQ Index Pollutant
Not available.

Snow Depth

Station Depth Elevation

Earthquake Activity

City Distance Mag. Time & Date
Minimum magnitude displayed is 2.5.

Coastal Water Temperatures

Place Temperature

Nearby Weather Stations